createdAt,value
2022-12-27T00:00:00.639Z,890.5
2022-12-27T00:01:00.786Z,890.5
2022-12-27T00:02:00.578Z,890.5
2022-12-27T00:03:00.425Z,890.5
2022-12-27T00:04:00.403Z,890.6
2022-12-27T00:05:00.375Z,890.6
2022-12-27T00:06:00.654Z,890.5
2022-12-27T00:07:00.402Z,890.5
2022-12-27T00:08:00.444Z,890.5
2022-12-27T00:09:00.401Z,890.5
2022-12-27T00:10:00.409Z,890.6
2022-12-27T00:11:00.407Z,890.5
2022-12-27T00:12:00.509Z,890.5
2022-12-27T00:13:00.412Z,890.5
2022-12-27T00:14:00.408Z,890.6
2022-12-27T00:15:00.415Z,890.6
2022-12-27T00:16:00.683Z,890.5
2022-12-27T00:17:00.467Z,890.5
2022-12-27T00:18:00.497Z,890.5
2022-12-27T00:19:00.398Z,890.5
2022-12-27T00:20:04.029Z,890.5
2022-12-27T00:21:00.399Z,890.5
2022-12-27T00:22:00.406Z,890.5
2022-12-27T00:23:00.441Z,890.6
2022-12-27T00:24:00.613Z,890.6
2022-12-27T00:25:00.406Z,890.6
2022-12-27T00:26:00.396Z,890.6
2022-12-27T00:27:00.389Z,890.6
2022-12-27T00:28:00.434Z,890.6
2022-12-27T00:29:00.507Z,890.6
2022-12-27T00:30:00.736Z,890.6
2022-12-27T00:31:00.531Z,890.5
2022-12-27T00:32:00.905Z,890.6
2022-12-27T00:33:00.432Z,890.5
2022-12-27T00:34:00.449Z,890.6
2022-12-27T00:35:00.458Z,890.5
2022-12-27T00:36:00.595Z,890.5
2022-12-27T00:37:00.376Z,890.5
2022-12-27T00:38:00.427Z,890.5
2022-12-27T00:39:00.486Z,890.5
2022-12-27T00:40:00.405Z,890.5
2022-12-27T00:41:00.453Z,890.5
2022-12-27T00:42:00.631Z,890.5
2022-12-27T00:43:00.485Z,890.5
2022-12-27T00:44:00.375Z,890.5
2022-12-27T00:45:00.380Z,890.5
2022-12-27T00:46:00.457Z,890.5
2022-12-27T00:47:00.600Z,890.5
2022-12-27T00:48:00.423Z,890.5
2022-12-27T00:49:00.434Z,890.4
2022-12-27T00:50:00.374Z,890.5
2022-12-27T00:51:00.434Z,890.5
2022-12-27T00:52:00.401Z,890.5
2022-12-27T00:53:00.381Z,890.5
2022-12-27T00:54:00.528Z,890.5
2022-12-27T00:55:00.411Z,890.5
2022-12-27T00:56:00.407Z,890.5
2022-12-27T00:57:00.386Z,890.5
2022-12-27T00:58:00.411Z,890.5
2022-12-27T00:59:00.446Z,890.6
2022-12-27T01:00:06.180Z,890.5
2022-12-27T01:01:00.541Z,890.6
2022-12-27T01:02:00.782Z,890.6
2022-12-27T01:03:00.403Z,890.6
2022-12-27T01:04:00.460Z,890.6
2022-12-27T01:05:00.424Z,890.6
2022-12-27T01:06:00.595Z,890.5
2022-12-27T01:07:00.459Z,890.5
2022-12-27T01:08:00.483Z,890.5
2022-12-27T01:09:00.441Z,890.5
2022-12-27T01:10:00.493Z,890.5
2022-12-27T01:11:00.509Z,890.5
2022-12-27T01:12:00.561Z,890.6
2022-12-27T01:13:00.405Z,890.6
2022-12-27T01:14:00.393Z,890.6
2022-12-27T01:15:00.417Z,890.6
2022-12-27T01:16:00.408Z,890.6
2022-12-27T01:17:00.572Z,890.5
2022-12-27T01:18:00.479Z,890.6
2022-12-27T01:19:00.433Z,890.5
2022-12-27T01:20:00.372Z,890.6
2022-12-27T01:21:00.433Z,890.6
2022-12-27T01:22:00.408Z,890.6
2022-12-27T01:23:00.406Z,890.6
2022-12-27T01:24:00.531Z,890.6
2022-12-27T01:25:00.430Z,890.5
2022-12-27T01:26:00.377Z,890.6
2022-12-27T01:27:00.407Z,890.6
2022-12-27T01:28:00.399Z,890.6
2022-12-27T01:29:00.457Z,890.6
2022-12-27T01:30:00.556Z,890.6
2022-12-27T01:31:00.411Z,890.6
2022-12-27T01:32:00.622Z,890.6
2022-12-27T01:33:00.495Z,890.6
2022-12-27T01:34:00.483Z,890.6
2022-12-27T01:35:00.514Z,890.6
2022-12-27T01:36:00.611Z,890.6
2022-12-27T01:37:00.454Z,890.6
2022-12-27T01:38:00.488Z,890.6
2022-12-27T01:39:00.398Z,890.6
2022-12-27T01:40:00.435Z,890.6
2022-12-27T01:41:00.576Z,890.6
2022-12-27T01:42:00.594Z,890.6
2022-12-27T01:43:00.389Z,890.6
2022-12-27T01:44:00.454Z,890.5
2022-12-27T01:45:00.378Z,890.6
2022-12-27T01:46:00.420Z,890.5
2022-12-27T01:47:00.554Z,890.5
2022-12-27T01:48:00.616Z,890.5
2022-12-27T01:49:03.244Z,890.6
2022-12-27T01:50:00.406Z,890.6
2022-12-27T01:51:00.402Z,890.5
2022-12-27T01:52:00.436Z,890.5
2022-12-27T01:53:00.411Z,890.5
2022-12-27T01:54:00.525Z,890.5
2022-12-27T01:55:00.406Z,890.5
2022-12-27T01:56:00.420Z,890.5
2022-12-27T01:57:00.438Z,890.6
2022-12-27T01:58:00.374Z,890.6
2022-12-27T01:59:00.430Z,890.5
2022-12-27T02:00:00.527Z,890.5
2022-12-27T02:01:00.515Z,890.5
2022-12-27T02:02:00.762Z,890.6
2022-12-27T02:03:00.400Z,890.6
2022-12-27T02:04:00.463Z,890.5
2022-12-27T02:05:00.479Z,890.5
2022-12-27T02:06:00.559Z,890.5
2022-12-27T02:07:00.483Z,890.6
2022-12-27T02:08:00.406Z,890.6
2022-12-27T02:09:00.469Z,890.6
2022-12-27T02:10:00.498Z,890.6
2022-12-27T02:11:00.375Z,890.6
2022-12-27T02:12:00.607Z,890.6
2022-12-27T02:13:00.410Z,890.6
2022-12-27T02:14:00.437Z,890.6
2022-12-27T02:15:00.380Z,890.6
2022-12-27T02:16:00.439Z,890.6
2022-12-27T02:17:00.547Z,890.6
2022-12-27T02:18:00.491Z,890.6
2022-12-27T02:19:00.410Z,890.6
2022-12-27T02:20:00.406Z,890.6
2022-12-27T02:21:00.407Z,890.6
2022-12-27T02:22:00.384Z,890.6
2022-12-27T02:23:00.453Z,890.6
2022-12-27T02:24:00.580Z,890.6
2022-12-27T02:25:00.410Z,890.7
2022-12-27T02:26:00.421Z,890.6
2022-12-27T02:27:00.436Z,890.6
2022-12-27T02:28:00.860Z,890.7
2022-12-27T02:29:00.438Z,890.7
2022-12-27T02:30:00.594Z,890.7
2022-12-27T02:31:00.506Z,890.7
2022-12-27T02:32:00.446Z,890.7
2022-12-27T02:33:00.547Z,890.7
2022-12-27T02:34:00.375Z,890.7
2022-12-27T02:35:00.399Z,890.7
2022-12-27T02:36:00.583Z,890.7
2022-12-27T02:37:00.464Z,890.7
2022-12-27T02:38:00.440Z,890.7
2022-12-27T02:39:00.432Z,890.7
2022-12-27T02:40:00.418Z,890.7
2022-12-27T02:41:00.409Z,890.7
2022-12-27T02:42:00.643Z,890.7
2022-12-27T02:43:00.463Z,890.7
2022-12-27T02:44:00.412Z,890.7
2022-12-27T02:45:00.439Z,890.7
2022-12-27T02:46:00.452Z,890.8
2022-12-27T02:47:00.380Z,890.8
2022-12-27T02:48:00.767Z,890.7
2022-12-27T02:49:00.475Z,890.8
2022-12-27T02:50:00.428Z,890.8
2022-12-27T02:51:00.428Z,890.8
2022-12-27T02:52:00.435Z,890.8
2022-12-27T02:53:00.439Z,890.8
2022-12-27T02:54:00.521Z,890.8
2022-12-27T02:55:00.411Z,890.8
2022-12-27T02:56:00.381Z,890.8
2022-12-27T02:57:00.433Z,890.8
2022-12-27T02:58:00.372Z,890.8
2022-12-27T02:59:00.417Z,890.8
2022-12-27T03:00:00.556Z,890.8
2022-12-27T03:01:00.419Z,890.8
2022-12-27T03:02:00.535Z,890.8
2022-12-27T03:03:00.460Z,890.8
2022-12-27T03:04:00.472Z,890.8
2022-12-27T03:05:00.525Z,890.8
2022-12-27T03:06:00.507Z,890.8
2022-12-27T03:07:00.463Z,890.8
2022-12-27T03:08:00.488Z,890.8
2022-12-27T03:09:00.425Z,890.8
2022-12-27T03:10:00.463Z,890.8
2022-12-27T03:11:00.428Z,890.8
2022-12-27T03:12:00.535Z,890.8
2022-12-27T03:13:00.394Z,890.9
2022-12-27T03:14:00.424Z,890.8
2022-12-27T03:15:00.407Z,890.9
2022-12-27T03:16:00.453Z,890.8
2022-12-27T03:17:00.404Z,890.9
2022-12-27T03:18:00.669Z,890.9
2022-12-27T03:19:00.436Z,890.9
2022-12-27T03:20:00.409Z,890.9
2022-12-27T03:21:00.442Z,891.0
2022-12-27T03:22:00.407Z,890.9
2022-12-27T03:23:00.377Z,890.9
2022-12-27T03:24:00.539Z,891.0
2022-12-27T03:25:00.449Z,891.0
2022-12-27T03:26:00.379Z,891.0
2022-12-27T03:27:00.408Z,891.0
2022-12-27T03:28:00.404Z,891.0
2022-12-27T03:29:00.412Z,891.0
2022-12-27T03:30:00.532Z,891.0
2022-12-27T03:31:00.441Z,891.0
2022-12-27T03:32:00.441Z,891.0
2022-12-27T03:33:00.431Z,891.0
2022-12-27T03:34:00.430Z,891.0
2022-12-27T03:35:00.436Z,891.0
2022-12-27T03:36:00.609Z,891.0
2022-12-27T03:37:00.573Z,891.0
2022-12-27T03:38:00.449Z,891.0
2022-12-27T03:39:00.489Z,891.0
2022-12-27T03:40:00.471Z,891.0
2022-12-27T03:41:00.376Z,891.0
2022-12-27T03:42:00.607Z,891.0
2022-12-27T03:43:00.454Z,891.0
2022-12-27T03:44:00.384Z,891.0
2022-12-27T03:45:00.441Z,891.0
2022-12-27T03:46:00.429Z,891.1
2022-12-27T03:47:00.436Z,891.1
2022-12-27T03:48:00.664Z,891.0
2022-12-27T03:49:00.414Z,891.1
2022-12-27T03:50:00.408Z,891.1
2022-12-27T03:51:00.420Z,891.1
2022-12-27T03:52:00.539Z,891.1
2022-12-27T03:53:00.518Z,891.1
2022-12-27T03:54:00.550Z,891.1
2022-12-27T03:55:00.406Z,891.1
2022-12-27T03:56:00.429Z,891.1
2022-12-27T03:57:00.410Z,891.1
2022-12-27T03:58:00.433Z,891.0
2022-12-27T03:59:00.463Z,891.1
2022-12-27T04:00:00.583Z,891.1
2022-12-27T04:01:00.481Z,891.1
2022-12-27T04:02:00.515Z,891.1
2022-12-27T04:03:00.535Z,891.1
2022-12-27T04:04:00.431Z,891.1
2022-12-27T04:05:00.451Z,891.1
2022-12-27T04:06:00.585Z,891.1
2022-12-27T04:07:00.417Z,891.1
2022-12-27T04:08:00.598Z,891.1
2022-12-27T04:09:00.400Z,891.1
2022-12-27T04:10:00.386Z,891.1
2022-12-27T04:11:00.404Z,891.1
2022-12-27T04:12:00.499Z,891.1
2022-12-27T04:13:00.398Z,891.1
2022-12-27T04:14:00.422Z,891.1
2022-12-27T04:15:00.378Z,891.1
2022-12-27T04:16:00.497Z,891.2
2022-12-27T04:17:00.451Z,891.1
2022-12-27T04:18:00.534Z,891.2
2022-12-27T04:19:00.371Z,891.2
2022-12-27T04:20:00.435Z,891.2
2022-12-27T04:21:00.415Z,891.2
2022-12-27T04:22:00.405Z,891.2
2022-12-27T04:23:00.541Z,891.2
2022-12-27T04:24:00.554Z,891.2
2022-12-27T04:25:00.486Z,891.2
2022-12-27T04:26:00.421Z,891.2
2022-12-27T04:27:00.511Z,891.2
2022-12-27T04:28:00.430Z,891.2
2022-12-27T04:29:00.481Z,891.2
2022-12-27T04:30:00.567Z,891.2
2022-12-27T04:31:00.413Z,891.2
2022-12-27T04:32:00.407Z,891.2
2022-12-27T04:33:00.441Z,891.2
2022-12-27T04:34:00.407Z,891.2
2022-12-27T04:35:00.409Z,891.2
2022-12-27T04:36:06.021Z,891.2
2022-12-27T04:37:00.413Z,891.2
2022-12-27T04:38:00.378Z,891.2
2022-12-27T04:39:00.506Z,891.2
2022-12-27T04:40:00.475Z,891.2
2022-12-27T04:41:00.400Z,891.2
2022-12-27T04:42:00.510Z,891.2
2022-12-27T04:43:00.421Z,891.2
2022-12-27T04:44:00.451Z,891.2
2022-12-27T04:45:00.423Z,891.2
2022-12-27T04:46:00.415Z,891.2
2022-12-27T04:47:00.407Z,891.2
2022-12-27T04:48:00.546Z,891.2
2022-12-27T04:49:00.441Z,891.2
2022-12-27T04:50:00.413Z,891.2
2022-12-27T04:51:00.443Z,891.2
2022-12-27T04:52:00.403Z,891.2
2022-12-27T04:53:00.394Z,891.2
2022-12-27T04:54:00.626Z,891.3
2022-12-27T04:55:00.480Z,891.3
2022-12-27T04:56:00.469Z,891.3
2022-12-27T04:57:00.417Z,891.3
2022-12-27T04:58:00.513Z,891.3
2022-12-27T04:59:00.411Z,891.3
2022-12-27T05:00:00.515Z,891.3
2022-12-27T05:01:00.438Z,891.3
2022-12-27T05:02:00.564Z,891.3
2022-12-27T05:03:00.621Z,891.3
2022-12-27T05:04:00.442Z,891.3
2022-12-27T05:05:00.430Z,891.3
2022-12-27T05:06:00.563Z,891.3
2022-12-27T05:07:00.489Z,891.3
2022-12-27T05:08:00.393Z,891.3
2022-12-27T05:09:00.454Z,891.3
2022-12-27T05:10:00.636Z,891.4
2022-12-27T05:11:00.405Z,891.3
2022-12-27T05:12:00.659Z,891.3
2022-12-27T05:13:00.401Z,891.4
2022-12-27T05:14:00.414Z,891.3
2022-12-27T05:15:00.401Z,891.3
2022-12-27T05:16:00.492Z,891.4
2022-12-27T05:17:00.431Z,891.3
2022-12-27T05:18:00.550Z,891.4
2022-12-27T05:19:00.403Z,891.3
2022-12-27T05:20:00.378Z,891.4
2022-12-27T05:21:00.483Z,891.4
2022-12-27T05:22:00.413Z,891.4
2022-12-27T05:23:00.411Z,891.4
2022-12-27T05:24:05.411Z,891.4
2022-12-27T05:25:00.524Z,891.4
2022-12-27T05:26:00.401Z,891.4
2022-12-27T05:27:00.377Z,891.4
2022-12-27T05:28:00.495Z,891.4
2022-12-27T05:29:00.379Z,891.4
2022-12-27T05:30:00.517Z,891.4
2022-12-27T05:31:00.464Z,891.4
2022-12-27T05:32:00.458Z,891.4
2022-12-27T05:33:00.376Z,891.4
2022-12-27T05:34:00.441Z,891.4
2022-12-27T05:35:00.441Z,891.4
2022-12-27T05:36:00.604Z,891.4
2022-12-27T05:37:00.399Z,891.4
2022-12-27T05:38:00.401Z,891.4
2022-12-27T05:39:00.408Z,891.4
2022-12-27T05:40:00.590Z,891.4
2022-12-27T05:41:00.438Z,891.4
2022-12-27T05:42:00.524Z,891.5
2022-12-27T05:43:00.446Z,891.5
2022-12-27T05:44:06.516Z,891.5
2022-12-27T05:45:00.397Z,891.5
2022-12-27T05:46:00.375Z,891.6
2022-12-27T05:47:00.506Z,891.5
2022-12-27T05:48:00.559Z,891.5
2022-12-27T05:49:00.379Z,891.5
2022-12-27T05:50:00.412Z,891.5
2022-12-27T05:51:00.431Z,891.6
2022-12-27T05:52:00.415Z,891.6
2022-12-27T05:53:00.414Z,891.6
2022-12-27T05:54:00.534Z,891.6
2022-12-27T05:55:00.635Z,891.5
2022-12-27T05:56:00.432Z,891.5
2022-12-27T05:57:00.381Z,891.5
2022-12-27T05:58:00.402Z,891.5
2022-12-27T05:59:00.399Z,891.5
2022-12-27T06:00:00.696Z,891.6
2022-12-27T06:01:00.374Z,891.5
2022-12-27T06:02:00.626Z,891.6
2022-12-27T06:03:00.463Z,891.6
2022-12-27T06:04:00.378Z,891.6
2022-12-27T06:05:00.411Z,891.6
2022-12-27T06:06:00.568Z,891.6
2022-12-27T06:07:00.419Z,891.6
2022-12-27T06:08:00.454Z,891.6
2022-12-27T06:09:00.385Z,891.6
2022-12-27T06:10:00.499Z,891.6
2022-12-27T06:11:00.511Z,891.6
2022-12-27T06:12:00.469Z,891.6
2022-12-27T06:13:00.423Z,891.6
2022-12-27T06:14:00.408Z,891.6
2022-12-27T06:15:00.372Z,891.6
2022-12-27T06:16:00.504Z,891.6
2022-12-27T06:17:00.444Z,891.7
2022-12-27T06:18:00.514Z,891.7
2022-12-27T06:19:00.493Z,891.7
2022-12-27T06:20:00.491Z,891.7
2022-12-27T06:21:00.465Z,891.7
2022-12-27T06:22:00.394Z,891.7
2022-12-27T06:23:00.405Z,891.6
2022-12-27T06:24:00.567Z,891.6
2022-12-27T06:25:00.386Z,891.7
2022-12-27T06:26:00.470Z,891.6
2022-12-27T06:27:00.404Z,891.7
2022-12-27T06:28:00.404Z,891.7
2022-12-27T06:29:00.387Z,891.6
2022-12-27T06:30:00.564Z,891.7
2022-12-27T06:31:00.414Z,891.7
2022-12-27T06:32:00.499Z,891.7
2022-12-27T06:33:00.405Z,891.7
2022-12-27T06:34:00.405Z,891.7
2022-12-27T06:35:00.382Z,891.7
2022-12-27T06:36:00.791Z,891.7
2022-12-27T06:37:00.395Z,891.7
2022-12-27T06:38:00.493Z,891.7
2022-12-27T06:39:00.379Z,891.7
2022-12-27T06:40:00.470Z,891.7
2022-12-27T06:41:00.612Z,891.7
2022-12-27T06:42:00.844Z,891.7
2022-12-27T06:43:00.381Z,891.7
2022-12-27T06:44:00.403Z,891.7
2022-12-27T06:45:00.409Z,891.7
2022-12-27T06:46:00.483Z,891.7
2022-12-27T06:47:00.416Z,891.7
2022-12-27T06:48:00.549Z,891.7
2022-12-27T06:49:00.409Z,891.7
2022-12-27T06:50:00.399Z,891.7
2022-12-27T06:51:00.424Z,891.7
2022-12-27T06:52:00.545Z,891.7
2022-12-27T06:54:00.504Z,891.7
2022-12-27T06:55:00.409Z,891.7
2022-12-27T06:56:00.552Z,891.7
2022-12-27T06:58:00.603Z,891.7
2022-12-27T06:59:00.385Z,891.8
2022-12-27T07:00:00.542Z,891.7
2022-12-27T07:02:00.550Z,891.7
2022-12-27T07:03:00.470Z,891.8
2022-12-27T07:06:00.520Z,891.7
2022-12-27T07:07:00.446Z,891.7
2022-12-27T07:08:00.409Z,891.7
2022-12-27T07:09:00.482Z,891.7
2022-12-27T07:10:00.441Z,891.7
2022-12-27T07:11:00.439Z,891.7
2022-12-27T07:12:00.586Z,891.7
2022-12-27T07:13:00.535Z,891.7
2022-12-27T07:14:00.581Z,891.7
2022-12-27T07:15:00.421Z,891.7
2022-12-27T07:16:00.541Z,891.7
2022-12-27T07:17:00.610Z,891.7
2022-12-27T07:18:00.629Z,891.7
2022-12-27T07:19:00.717Z,891.6
2022-12-27T07:20:00.522Z,891.6
2022-12-27T07:21:00.400Z,891.6
2022-12-27T07:22:00.388Z,891.6
2022-12-27T07:23:00.471Z,891.6
2022-12-27T07:24:00.574Z,891.7
2022-12-27T07:25:00.481Z,891.6
2022-12-27T07:26:00.567Z,891.6
2022-12-27T07:27:00.497Z,891.6
2022-12-27T07:28:00.753Z,891.6
2022-12-27T07:29:00.473Z,891.6
2022-12-27T07:30:00.589Z,891.6
2022-12-27T07:31:00.377Z,891.6
2022-12-27T07:32:00.509Z,891.6
2022-12-27T07:33:00.407Z,891.6
2022-12-27T07:34:00.406Z,891.6
2022-12-27T07:35:00.433Z,891.6
2022-12-27T07:36:00.568Z,891.6
2022-12-27T07:37:00.435Z,891.6
2022-12-27T07:38:00.437Z,891.6
2022-12-27T07:39:00.404Z,891.6
2022-12-27T07:40:00.432Z,891.6
2022-12-27T07:41:00.410Z,891.6
2022-12-27T07:42:04.765Z,891.6
2022-12-27T07:43:00.507Z,891.6
2022-12-27T07:44:00.434Z,891.5
2022-12-27T07:45:00.397Z,891.5
2022-12-27T07:46:00.527Z,891.5
2022-12-27T07:47:00.387Z,891.5
2022-12-27T07:48:00.658Z,891.5
2022-12-27T07:49:00.455Z,891.5
2022-12-27T07:50:00.445Z,891.5
2022-12-27T07:51:00.478Z,891.5
2022-12-27T07:52:00.541Z,891.5
2022-12-27T07:53:00.467Z,891.5
2022-12-27T07:54:00.549Z,891.5
2022-12-27T07:55:00.446Z,891.4
2022-12-27T07:56:00.460Z,891.4
2022-12-27T07:57:00.494Z,891.4
2022-12-27T07:58:00.585Z,891.4
2022-12-27T07:59:00.520Z,891.4
2022-12-27T08:00:00.547Z,891.4
2022-12-27T08:01:00.535Z,891.4
2022-12-27T08:02:00.578Z,891.4
2022-12-27T08:03:00.476Z,891.4
2022-12-27T08:04:00.412Z,891.4
2022-12-27T08:05:00.379Z,891.4
2022-12-27T08:06:00.534Z,891.4
2022-12-27T08:07:00.393Z,891.3
2022-12-27T08:08:00.430Z,891.3
2022-12-27T08:09:00.417Z,891.3
2022-12-27T08:10:00.416Z,891.3
2022-12-27T08:11:05.254Z,891.3
2022-12-27T08:12:00.518Z,891.3
2022-12-27T08:13:00.533Z,891.3
2022-12-27T08:14:00.404Z,891.3
2022-12-27T08:15:00.401Z,891.3
2022-12-27T08:16:00.453Z,891.3
2022-12-27T08:17:00.459Z,891.3
2022-12-27T08:18:00.550Z,891.3
2022-12-27T08:19:06.428Z,891.3
2022-12-27T08:20:00.409Z,891.3
2022-12-27T08:21:00.401Z,891.3
2022-12-27T08:22:00.378Z,891.3
2022-12-27T08:23:00.467Z,891.3
2022-12-27T08:24:00.571Z,891.2
2022-12-27T08:25:00.418Z,891.3
2022-12-27T08:26:00.472Z,891.3
2022-12-27T08:27:00.492Z,891.2
2022-12-27T08:28:00.718Z,891.2
2022-12-27T08:29:00.566Z,891.2
2022-12-27T08:30:00.744Z,891.2
2022-12-27T08:31:00.484Z,891.2
2022-12-27T08:32:00.440Z,891.2
2022-12-27T08:33:00.488Z,891.2
2022-12-27T08:34:00.513Z,891.2
2022-12-27T08:35:18.306Z,891.2
2022-12-27T08:36:04.747Z,891.1
2022-12-27T08:37:00.409Z,891.1
2022-12-27T08:38:00.376Z,891.2
2022-12-27T08:39:00.407Z,891.1
2022-12-27T08:40:02.855Z,891.1
2022-12-27T08:41:00.412Z,891.1
2022-12-27T08:42:00.713Z,891.1
2022-12-27T08:43:00.529Z,891.1
2022-12-27T08:44:00.386Z,891.1
2022-12-27T08:45:00.431Z,891.0
2022-12-27T08:46:00.512Z,891.0
2022-12-27T08:47:00.432Z,891.0
2022-12-27T08:48:00.673Z,891.0
2022-12-27T08:49:00.401Z,891.0
2022-12-27T08:50:00.377Z,891.0
2022-12-27T08:51:00.407Z,890.9
2022-12-27T08:52:00.410Z,891.0
2022-12-27T08:53:00.397Z,891.0
2022-12-27T08:54:00.660Z,891.0
2022-12-27T08:55:00.392Z,890.9
2022-12-27T08:56:00.439Z,890.9
2022-12-27T08:57:00.401Z,890.9
2022-12-27T08:58:00.563Z,890.9
2022-12-27T08:59:00.566Z,890.9
2022-12-27T09:00:00.556Z,890.8
2022-12-27T09:01:00.484Z,890.8
2022-12-27T09:02:00.576Z,890.8
2022-12-27T09:03:00.542Z,890.8
2022-12-27T09:04:00.428Z,890.8
2022-12-27T09:05:00.380Z,890.8
2022-12-27T09:06:00.658Z,890.8
2022-12-27T09:07:00.454Z,890.8
2022-12-27T09:08:00.414Z,890.8
2022-12-27T09:09:00.422Z,890.8
2022-12-27T09:10:00.431Z,890.7
2022-12-27T09:11:00.431Z,890.7
2022-12-27T09:12:03.049Z,890.7
2022-12-27T09:13:00.407Z,890.7
2022-12-27T09:14:00.584Z,890.7
2022-12-27T09:15:00.542Z,890.7
2022-12-27T09:16:00.537Z,890.7
2022-12-27T09:17:00.439Z,890.6
2022-12-27T09:18:00.544Z,890.6
2022-12-27T09:19:00.432Z,890.6
2022-12-27T09:20:00.468Z,890.6
2022-12-27T09:21:00.462Z,890.6
2022-12-27T09:22:00.434Z,890.6
2022-12-27T09:23:00.386Z,890.6
2022-12-27T09:24:00.595Z,890.6
2022-12-27T09:25:00.476Z,890.6
2022-12-27T09:26:00.405Z,890.6
2022-12-27T09:27:00.379Z,890.6
2022-12-27T09:28:00.440Z,890.5
2022-12-27T09:29:00.372Z,890.5
2022-12-27T09:30:00.575Z,890.5
2022-12-27T09:31:00.454Z,890.5
2022-12-27T09:32:00.435Z,890.5
2022-12-27T09:33:00.423Z,890.5
2022-12-27T09:34:00.410Z,890.5
2022-12-27T09:35:00.395Z,890.5
2022-12-27T09:36:00.585Z,890.5
2022-12-27T09:37:00.413Z,890.5
2022-12-27T09:38:00.427Z,890.5
2022-12-27T09:39:00.557Z,890.5
2022-12-27T09:40:00.492Z,890.4
2022-12-27T09:41:00.484Z,890.4
2022-12-27T09:43:15.367Z,890.4
2022-12-27T09:44:00.502Z,890.4
2022-12-27T09:45:00.593Z,890.4
2022-12-27T09:46:00.510Z,890.4
2022-12-27T09:47:00.537Z,890.4
2022-12-27T09:48:00.635Z,890.3
2022-12-27T09:49:00.413Z,890.3
2022-12-27T09:50:00.481Z,890.3
2022-12-27T09:51:00.418Z,890.4
2022-12-27T09:52:00.404Z,890.3
2022-12-27T09:53:00.419Z,890.4
2022-12-27T09:54:00.678Z,890.3
2022-12-27T09:55:04.662Z,890.3
2022-12-27T09:56:00.485Z,890.3
2022-12-27T09:57:18.945Z,890.3
2022-12-27T09:58:00.411Z,890.3
2022-12-27T09:59:00.485Z,890.3
2022-12-27T10:00:00.605Z,890.3
2022-12-27T10:01:00.374Z,890.3
2022-12-27T10:02:00.448Z,890.3
2022-12-27T10:03:00.373Z,890.3
2022-12-27T10:04:00.403Z,890.3
2022-12-27T10:05:19.777Z,890.3
2022-12-27T10:06:00.619Z,890.3
2022-12-27T10:07:00.406Z,890.3
2022-12-27T10:08:00.413Z,890.2
2022-12-27T10:09:00.467Z,890.2
2022-12-27T10:10:00.379Z,890.2
2022-12-27T10:11:00.379Z,890.2
2022-12-27T10:12:00.566Z,890.2
2022-12-27T10:13:00.403Z,890.2
2022-12-27T10:14:00.413Z,890.2
2022-12-27T10:15:00.670Z,890.2
2022-12-27T10:16:00.425Z,890.2
2022-12-27T10:17:00.449Z,890.2
2022-12-27T10:18:00.537Z,890.2
2022-12-27T10:19:00.419Z,890.2
2022-12-27T10:20:00.379Z,890.2
2022-12-27T10:21:00.407Z,890.2
2022-12-27T10:22:00.403Z,890.1
2022-12-27T10:23:05.981Z,890.1
2022-12-27T10:24:00.646Z,890.2
2022-12-27T10:25:00.431Z,890.1
2022-12-27T10:26:00.382Z,890.2
2022-12-27T10:27:00.405Z,890.1
2022-12-27T10:28:00.440Z,890.1
2022-12-27T10:29:00.411Z,890.1
2022-12-27T10:30:00.590Z,890.1
2022-12-27T10:31:00.444Z,890.1
2022-12-27T10:32:00.477Z,890.1
2022-12-27T10:33:00.467Z,890.1
2022-12-27T10:34:00.442Z,890.1
2022-12-27T10:35:00.418Z,890.1
2022-12-27T10:36:00.572Z,890.1
2022-12-27T10:37:00.388Z,890.1
2022-12-27T10:38:00.390Z,890.1
2022-12-27T10:39:00.438Z,890.1
2022-12-27T10:40:00.406Z,890.1
2022-12-27T10:41:00.405Z,890.1
2022-12-27T10:42:00.549Z,890.1
2022-12-27T10:43:00.447Z,890.1
2022-12-27T10:44:00.511Z,890.1
2022-12-27T10:45:00.525Z,890.1
2022-12-27T10:46:00.451Z,890.1
2022-12-27T10:47:00.464Z,890.0
2022-12-27T10:48:00.701Z,890.0
2022-12-27T10:49:21.386Z,890.0
2022-12-27T10:50:00.478Z,890.0
2022-12-27T10:51:00.418Z,890.0
2022-12-27T10:52:00.389Z,890.0
2022-12-27T10:53:00.377Z,890.0
2022-12-27T10:54:00.604Z,890.0
2022-12-27T10:55:00.407Z,890.0
2022-12-27T10:56:00.420Z,890.0
2022-12-27T10:57:00.409Z,890.0
2022-12-27T10:58:00.420Z,890.0
2022-12-27T10:59:00.401Z,890.0
2022-12-27T11:00:00.633Z,890.0
2022-12-27T11:01:00.556Z,889.9
2022-12-27T11:02:00.772Z,890.0
2022-12-27T11:03:00.452Z,889.9
2022-12-27T11:04:00.407Z,889.9
2022-12-27T11:05:00.467Z,889.9
2022-12-27T11:06:00.617Z,890.0
2022-12-27T11:07:00.453Z,890.0
2022-12-27T11:08:00.532Z,890.0
2022-12-27T11:09:00.411Z,890.0
2022-12-27T11:10:00.415Z,889.9
2022-12-27T11:11:00.410Z,890.0
2022-12-27T11:12:00.627Z,890.0
2022-12-27T11:13:00.388Z,890.0
2022-12-27T11:14:00.446Z,890.0
2022-12-27T11:15:00.567Z,890.0
2022-12-27T11:16:00.421Z,890.0
2022-12-27T11:17:00.431Z,890.0
2022-12-27T11:18:00.535Z,890.0
2022-12-27T11:19:00.462Z,890.0
2022-12-27T11:20:00.749Z,890.0
2022-12-27T11:21:00.449Z,890.0
2022-12-27T11:22:00.433Z,890.0
2022-12-27T11:23:00.437Z,890.0
2022-12-27T11:24:00.650Z,890.0
2022-12-27T11:25:00.465Z,890.0
2022-12-27T11:26:00.547Z,890.0
2022-12-27T11:27:00.398Z,890.0
2022-12-27T11:28:00.424Z,890.0
2022-12-27T11:29:00.480Z,890.0
2022-12-27T11:30:00.545Z,890.0
2022-12-27T11:31:00.555Z,890.0
2022-12-27T11:32:00.399Z,890.0
2022-12-27T11:33:00.457Z,890.0
2022-12-27T11:34:00.490Z,890.0
2022-12-27T11:35:00.492Z,890.0
2022-12-27T11:36:00.578Z,890.0
2022-12-27T11:37:00.419Z,890.0
2022-12-27T11:38:00.415Z,890.0
2022-12-27T11:39:00.440Z,890.0
2022-12-27T11:40:00.404Z,890.0
2022-12-27T11:41:00.412Z,890.0
2022-12-27T11:42:00.560Z,890.0
2022-12-27T11:43:00.423Z,890.0
2022-12-27T11:44:00.502Z,890.1
2022-12-27T11:45:00.439Z,890.1
2022-12-27T11:46:00.597Z,890.1
2022-12-27T11:47:00.451Z,890.1
2022-12-27T11:48:00.525Z,890.1
2022-12-27T11:49:00.568Z,890.1
2022-12-27T11:50:00.543Z,890.1
2022-12-27T11:51:00.522Z,890.1
2022-12-27T11:52:00.471Z,890.1
2022-12-27T11:53:00.497Z,890.1
2022-12-27T11:54:00.653Z,890.1
2022-12-27T11:55:00.403Z,890.2
2022-12-27T11:56:00.434Z,890.2
2022-12-27T11:57:00.459Z,890.1
2022-12-27T11:58:00.409Z,890.2
2022-12-27T11:59:00.434Z,890.2
2022-12-27T12:00:00.528Z,890.2
2022-12-27T12:01:05.260Z,890.2
2022-12-27T12:02:00.813Z,890.2
2022-12-27T12:03:00.549Z,890.2
2022-12-27T12:04:00.421Z,890.2
2022-12-27T12:05:00.381Z,890.2
2022-12-27T12:06:00.524Z,890.2
2022-12-27T12:07:00.441Z,890.2
2022-12-27T12:08:00.402Z,890.2
2022-12-27T12:09:00.439Z,890.2
2022-12-27T12:10:00.439Z,890.2
2022-12-27T12:11:00.413Z,890.3
2022-12-27T12:12:00.652Z,890.2
2022-12-27T12:13:00.451Z,890.2
2022-12-27T12:14:00.514Z,890.2
2022-12-27T12:15:00.389Z,890.2
2022-12-27T12:16:00.481Z,890.2
2022-12-27T12:17:00.591Z,890.2
2022-12-27T12:18:00.549Z,890.2
2022-12-27T12:19:00.450Z,890.2
2022-12-27T12:20:00.407Z,890.2
2022-12-27T12:21:00.447Z,890.2
2022-12-27T12:22:00.455Z,890.2
2022-12-27T12:23:00.483Z,890.2
2022-12-27T12:24:00.513Z,890.2
2022-12-27T12:25:00.385Z,890.2
2022-12-27T12:26:00.413Z,890.2
2022-12-27T12:27:00.387Z,890.2
2022-12-27T12:28:00.681Z,890.2
2022-12-27T12:29:01.041Z,890.2
2022-12-27T12:30:00.538Z,890.2
2022-12-27T12:31:00.399Z,890.2
2022-12-27T12:32:00.651Z,890.2
2022-12-27T12:33:00.377Z,890.2
2022-12-27T12:34:00.423Z,890.2
2022-12-27T12:35:00.387Z,890.2
2022-12-27T12:36:00.550Z,890.3
2022-12-27T12:37:00.433Z,890.2
2022-12-27T12:38:00.397Z,890.2
2022-12-27T12:39:00.411Z,890.3
2022-12-27T12:40:00.476Z,890.3
2022-12-27T12:41:00.469Z,890.3
2022-12-27T12:42:00.587Z,890.2
2022-12-27T12:43:00.545Z,890.3
2022-12-27T12:44:00.448Z,890.3
2022-12-27T12:45:00.476Z,890.2
2022-12-27T12:46:00.572Z,890.2
2022-12-27T12:47:00.663Z,890.3
2022-12-27T12:48:00.568Z,890.3
2022-12-27T12:49:00.433Z,890.2
2022-12-27T12:50:00.497Z,890.3
2022-12-27T12:51:00.374Z,890.3
2022-12-27T12:52:00.405Z,890.3
2022-12-27T12:53:00.404Z,890.2
2022-12-27T12:54:00.569Z,890.2
2022-12-27T12:55:00.388Z,890.2
2022-12-27T12:56:00.440Z,890.3
2022-12-27T12:57:00.474Z,890.2
2022-12-27T12:58:00.511Z,890.2